Time;durP1;ratioP1;P1;durP2;ratioP2;P2;SDS_P1;SDS_P2;PMS_P1;PMS_P2;Temp;Humidity;BMP_temperature;BMP_pressure;BME280_temperature;BME280_humidity;BME280_pressure;Samples;Min_cycle;Max_cycle;Signal;HPM_P1;HPM_P2
2023/08/25 00:01:46;;;;;;;11.87;4.43;;;;;;;;;;5093311;28;20411;-64
2023/08/25 00:04:12;;;;;;;9.37;4.80;;;;;;;;;;5093192;28;20413;-64
2023/08/25 00:06:38;;;;;;;5.23;4.40;;;;;;;;;;5092767;28;20411;-64
2023/08/25 00:09:04;;;;;;;5.43;4.87;;;;;;;;;;5093154;28;20414;-64
2023/08/25 00:11:30;;;;;;;4.90;4.50;;;;;;;;;;5092883;28;20906;-64
2023/08/25 00:13:57;;;;;;;5.07;4.67;;;;;;;;;;5092975;28;20470;-63
2023/08/25 00:16:25;;;;;;;9.63;5.03;;;;;;;;;;5092947;28;20481;-63
2023/08/25 00:18:56;;;;;;;4.80;4.33;;;;;;;;;;5092634;28;20413;-63
2023/08/25 00:21:22;;;;;;;11.03;5.10;;;;;;;;;;5092674;28;21062;-64
2023/08/25 00:23:48;;;;;;;5.80;5.33;;;;;;;;;;5092563;28;20515;-64
2023/08/25 00:26:15;;;;;;;6.23;4.80;;;;;;;;;;5092571;28;20439;-64
2023/08/25 00:28:41;;;;;;;5.07;4.77;;;;;;;;;;5092943;28;20418;-64
2023/08/25 00:31:09;;;;;;;5.93;5.10;;;;;;;;;;5092653;28;20816;-64
2023/08/25 00:33:35;;;;;;;4.97;4.67;;;;;;;;;;5092725;28;20430;-64
2023/08/25 00:36:04;;;;;;;5.87;5.37;;;;;;;;;;5092567;28;20476;-64
2023/08/25 00:38:30;;;;;;;6.00;4.93;;;;;;;;;;5092599;28;20501;-64
2023/08/25 00:40:56;;;;;;;6.13;5.63;;;;;;;;;;5092683;28;20503;-64
2023/08/25 00:43:22;;;;;;;9.10;5.40;;;;;;;;;;5092527;28;20782;-64
2023/08/25 00:45:47;;;;;;;5.33;4.83;;;;;;;;;;5092521;28;20410;-64
2023/08/25 00:48:14;;;;;;;8.37;4.83;;;;;;;;;;5092058;28;20431;-64
2023/08/25 00:50:42;;;;;;;11.50;5.87;;;;;;;;;;5092498;28;20935;-64
2023/08/25 00:53:10;;;;;;;7.87;5.73;;;;;;;;;;5092570;28;20415;-64
2023/08/25 00:55:36;;;;;;;6.40;5.53;;;;;;;;;;5092314;28;20955;-64
2023/08/25 00:58:05;;;;;;;6.73;6.13;;;;;;;;;;5092489;28;20412;-64
2023/08/25 01:00:33;;;;;;;9.43;5.33;;;;;;;;;;5092443;28;20439;-64
2023/08/25 01:03:00;;;;;;;6.40;5.83;;;;;;;;;;5091359;28;20419;-66
2023/08/25 01:05:26;;;;;;;10.87;5.60;;;;;;;;;;5093211;28;20469;-66
2023/08/25 01:07:57;;;;;;;5.83;5.33;;;;;;;;;;5096644;28;20435;-66
2023/08/25 01:10:26;;;;;;;7.60;5.57;;;;;;;;;;5096420;28;20491;-66
2023/08/25 01:12:55;;;;;;;7.03;5.47;;;;;;;;;;5096330;28;20916;-66
2023/08/25 01:15:30;;;;;;;5.67;5.20;;;;;;;;;;5096211;28;20505;-66
2023/08/25 01:18:03;;;;;;;9.63;5.60;;;;;;;;;;5096563;28;20402;-66
2023/08/25 01:20:30;;;;;;;5.93;5.53;;;;;;;;;;5096199;28;20484;-66
2023/08/25 01:22:58;;;;;;;5.67;5.30;;;;;;;;;;5096277;28;20407;-66
2023/08/25 01:25:25;;;;;;;5.53;5.13;;;;;;;;;;5094768;28;20451;-66
2023/08/25 01:27:55;;;;;;;4.83;4.50;;;;;;;;;;5096187;28;20410;-66
2023/08/25 01:30:26;;;;;;;6.47;4.70;;;;;;;;;;5095945;28;20905;-66
2023/08/25 01:32:52;;;;;;;4.53;4.23;;;;;;;;;;5096302;28;20747;-66
2023/08/25 01:35:19;;;;;;;6.90;5.13;;;;;;;;;;5095924;28;20820;-67
2023/08/25 01:37:53;;;;;;;5.80;4.93;;;;;;;;;;5096029;28;20815;-64
2023/08/25 01:40:26;;;;;;;6.70;4.70;;;;;;;;;;5095764;28;20406;-63
2023/08/25 01:42:55;;;;;;;6.00;4.47;;;;;;;;;;5095905;28;20404;-63
2023/08/25 01:45:22;;;;;;;5.23;4.27;;;;;;;;;;5095597;28;20514;-63
2023/08/25 01:47:49;;;;;;;9.07;4.67;;;;;;;;;;5094448;28;20428;-64
2023/08/25 01:50:15;;;;;;;6.17;4.70;;;;;;;;;;5095731;28;20409;-64
2023/08/25 01:52:41;;;;;;;5.93;4.33;;;;;;;;;;5094328;28;20431;-63
2023/08/25 01:55:11;;;;;;;9.23;4.70;;;;;;;;;;5095667;28;20803;-63
2023/08/25 01:57:37;;;;;;;10.60;4.70;;;;;;;;;;5095607;28;20413;-63
2023/08/25 02:00:04;;;;;;;7.20;4.67;;;;;;;;;;5095545;28;20413;-63
2023/08/25 02:02:30;;;;;;;4.87;4.43;;;;;;;;;;5095399;28;20436;-63
2023/08/25 02:04:59;;;;;;;5.60;5.07;;;;;;;;;;5095388;28;20408;-63
2023/08/25 02:07:25;;;;;;;4.40;3.97;;;;;;;;;;5095303;28;20410;-63
2023/08/25 02:09:55;;;;;;;4.63;4.23;;;;;;;;;;5095400;28;20394;-63
2023/08/25 02:12:23;;;;;;;4.70;4.30;;;;;;;;;;5095025;28;20489;-63
2023/08/25 02:14:49;;;;;;;5.07;4.67;;;;;;;;;;5095200;28;20808;-63
2023/08/25 02:17:15;;;;;;;15.57;4.53;;;;;;;;;;5093800;28;20480;-63
2023/08/25 02:19:41;;;;;;;6.63;4.60;;;;;;;;;;5094993;28;20415;-63
2023/08/25 02:22:07;;;;;;;10.80;4.70;;;;;;;;;;5095376;28;20426;-63
2023/08/25 02:24:35;;;;;;;7.03;4.30;;;;;;;;;;5095241;28;20816;-64
2023/08/25 02:27:01;;;;;;;5.37;5.07;;;;;;;;;;5094938;28;20471;-64
2023/08/25 02:29:27;;;;;;;7.90;5.07;;;;;;;;;;5095199;28;20505;-64
2023/08/25 02:31:56;;;;;;;6.07;5.00;;;;;;;;;;5094750;28;20439;-64
2023/08/25 02:34:22;;;;;;;5.27;4.63;;;;;;;;;;5095095;28;20423;-64
2023/08/25 02:36:48;;;;;;;8.20;4.83;;;;;;;;;;5094692;28;20473;-64
2023/08/25 02:39:14;;;;;;;5.73;5.33;;;;;;;;;;5094605;28;20911;-64
2023/08/25 02:41:40;;;;;;;6.97;4.67;;;;;;;;;;5094712;28;20798;-64
2023/08/25 02:44:08;;;;;;;14.30;5.33;;;;;;;;;;5094586;28;20424;-64
2023/08/25 02:46:35;;;;;;;7.50;5.47;;;;;;;;;;5093480;28;20467;-64
2023/08/25 02:49:00;;;;;;;8.53;5.90;;;;;;;;;;5094334;28;20418;-64
2023/08/25 02:51:26;;;;;;;11.13;5.70;;;;;;;;;;5094537;28;20832;-64
2023/08/25 02:53:52;;;;;;;6.80;6.23;;;;;;;;;;5093040;28;20434;-64
2023/08/25 02:56:18;;;;;;;7.67;5.77;;;;;;;;;;5094324;28;20532;-64
2023/08/25 02:58:47;;;;;;;7.17;6.60;;;;;;;;;;5094288;28;20398;-64
2023/08/25 03:01:13;;;;;;;9.03;6.07;;;;;;;;;;5094248;28;20434;-64
2023/08/25 03:03:39;;;;;;;11.80;5.90;;;;;;;;;;5094440;28;20489;-66
2023/08/25 03:06:08;;;;;;;9.13;5.77;;;;;;;;;;5094092;28;20428;-66
2023/08/25 03:08:34;;;;;;;17.17;6.93;;;;;;;;;;5094005;28;20417;-66
2023/08/25 03:11:03;;;;;;;6.57;5.70;;;;;;;;;;5094058;28;20852;-66
2023/08/25 03:13:32;;;;;;;10.53;7.17;;;;;;;;;;5094147;28;20431;-64
2023/08/25 03:16:01;;;;;;;10.70;7.00;;;;;;;;;;5093871;28;20451;-65
2023/08/25 03:18:27;;;;;;;8.10;6.00;;;;;;;;;;5094183;28;20759;-64
2023/08/25 03:20:53;;;;;;;15.00;7.10;;;;;;;;;;5093641;28;20427;-64
2023/08/25 03:23:20;;;;;;;9.70;6.70;;;;;;;;;;5093970;28;20413;-64
2023/08/25 03:25:46;;;;;;;9.30;6.77;;;;;;;;;;5093737;28;20433;-64
2023/08/25 03:28:14;;;;;;;7.07;6.40;;;;;;;;;;5093212;28;20977;-64
2023/08/25 03:30:40;;;;;;;6.00;5.60;;;;;;;;;;5093766;28;20815;-64
2023/08/25 03:33:06;;;;;;;7.00;6.43;;;;;;;;;;5093607;28;20415;-64
2023/08/25 03:35:38;;;;;;;6.43;5.77;;;;;;;;;;5093624;28;20840;-64
2023/08/25 03:38:08;;;;;;;6.57;5.93;;;;;;;;;;5093571;28;20420;-64
2023/08/25 03:40:36;;;;;;;7.17;6.17;;;;;;;;;;5093673;28;20495;-64
2023/08/25 03:43:02;;;;;;;11.30;6.43;;;;;;;;;;5093482;28;20904;-64
2023/08/25 03:45:31;;;;;;;6.73;6.10;;;;;;;;;;5093654;28;20515;-64
2023/08/25 03:48:01;;;;;;;7.47;5.90;;;;;;;;;;5093386;28;20434;-64
2023/08/25 03:50:28;;;;;;;8.30;6.80;;;;;;;;;;5093325;28;20458;-64
2023/08/25 03:52:56;;;;;;;10.83;6.83;;;;;;;;;;5093377;28;20522;-64
2023/08/25 03:55:22;;;;;;;15.60;7.00;;;;;;;;;;5093298;28;20545;-64
2023/08/25 03:57:48;;;;;;;7.00;6.30;;;;;;;;;;5093213;28;20523;-63
2023/08/25 04:00:14;;;;;;;8.63;6.60;;;;;;;;;;5093252;28;20425;-63
2023/08/25 04:02:40;;;;;;;8.90;7.90;;;;;;;;;;5092955;28;20432;-63
2023/08/25 04:05:07;;;;;;;7.80;7.10;;;;;;;;;;5093061;28;20417;-63
2023/08/25 04:07:35;;;;;;;9.23;8.20;;;;;;;;;;5092892;28;20436;-64
2023/08/25 04:10:01;;;;;;;11.47;7.73;;;;;;;;;;5092965;28;20772;-64
2023/08/25 04:12:27;;;;;;;9.00;8.10;;;;;;;;;;5092783;28;20482;-64
2023/08/25 04:14:53;;;;;;;19.23;8.00;;;;;;;;;;5092985;28;20418;-64
2023/08/25 04:17:19;;;;;;;8.37;7.57;;;;;;;;;;5092598;28;20959;-64
2023/08/25 04:19:46;;;;;;;9.50;8.70;;;;;;;;;;5092833;28;20507;-64
2023/08/25 04:22:14;;;;;;;9.50;8.63;;;;;;;;;;5091946;28;20872;-64
2023/08/25 04:24:40;;;;;;;11.23;9.17;;;;;;;;;;5092171;28;20494;-64
2023/08/25 04:27:06;;;;;;;13.03;8.93;;;;;;;;;;5092088;28;20938;-64
2023/08/25 04:29:32;;;;;;;13.03;8.90;;;;;;;;;;5092523;28;20408;-64
2023/08/25 04:31:58;;;;;;;12.37;8.50;;;;;;;;;;5092688;28;20768;-64
2023/08/25 04:34:27;;;;;;;10.03;9.07;;;;;;;;;;5092567;28;20419;-64
2023/08/25 04:36:55;;;;;;;10.83;8.50;;;;;;;;;;5092476;28;20496;-64
2023/08/25 04:39:21;;;;;;;8.13;7.33;;;;;;;;;;5091869;28;20786;-64
2023/08/25 04:41:50;;;;;;;10.63;7.80;;;;;;;;;;5092628;28;20446;-64
2023/08/25 04:44:16;;;;;;;11.13;8.20;;;;;;;;;;5092620;28;20464;-64
2023/08/25 04:46:42;;;;;;;11.27;8.67;;;;;;;;;;5092611;28;20440;-64
2023/08/25 04:49:12;;;;;;;13.40;9.00;;;;;;;;;;5092589;28;20976;-64
2023/08/25 04:51:40;;;;;;;9.63;8.67;;;;;;;;;;5092494;28;20424;-64
2023/08/25 04:54:06;;;;;;;12.50;8.83;;;;;;;;;;5092510;28;20946;-64
2023/08/25 04:56:35;;;;;;;16.93;8.53;;;;;;;;;;5092254;28;20464;-64
2023/08/25 04:59:01;;;;;;;9.40;8.50;;;;;;;;;;5092346;28;20885;-64
2023/08/25 05:01:27;;;;;;;9.23;8.37;;;;;;;;;;5091892;28;20459;-65
2023/08/25 05:03:55;;;;;;;16.60;8.93;;;;;;;;;;5091126;28;20796;-65
2023/08/25 05:06:21;;;;;;;10.03;9.13;;;;;;;;;;5092388;28;20790;-65
2023/08/25 05:08:47;;;;;;;15.03;9.97;;;;;;;;;;5092336;28;20438;-67
2023/08/25 05:11:13;;;;;;;14.27;12.70;;;;;;;;;;5092073;28;20473;-66
2023/08/25 05:13:39;;;;;;;17.70;10.47;;;;;;;;;;5091363;28;20539;-66
2023/08/25 05:16:08;;;;;;;82.97;46.47;;;;;;;;;;5092181;28;20452;-66
2023/08/25 05:18:37;;;;;;;15.03;10.20;;;;;;;;;;5092034;28;20436;-67
2023/08/25 05:21:03;;;;;;;80.60;47.27;;;;;;;;;;5092255;28;20490;-67
2023/08/25 05:23:29;;;;;;;30.73;19.67;;;;;;;;;;5091617;28;20440;-67
2023/08/25 05:25:55;;;;;;;32.07;19.60;;;;;;;;;;5091551;28;20408;-67
2023/08/25 05:28:21;;;;;;;21.63;13.10;;;;;;;;;;5091687;28;20510;-67
2023/08/25 05:30:50;;;;;;;13.33;8.57;;;;;;;;;;5092242;28;20426;-67
2023/08/25 05:33:19;;;;;;;12.27;10.23;;;;;;;;;;5092145;28;20907;-67
2023/08/25 05:35:45;;;;;;;18.83;8.60;;;;;;;;;;5091749;28;20546;-67
2023/08/25 05:38:11;;;;;;;10.03;7.97;;;;;;;;;;5092006;28;20652;-67
2023/08/25 05:40:36;;;;;;;13.03;8.77;;;;;;;;;;5092133;28;20415;-67
2023/08/25 05:43:02;;;;;;;7.87;7.27;;;;;;;;;;5092065;28;20917;-67
2023/08/25 05:45:31;;;;;;;8.80;7.90;;;;;;;;;;5092033;28;20784;-67
2023/08/25 05:47:57;;;;;;;17.77;7.60;;;;;;;;;;5092047;28;20436;-67
2023/08/25 05:50:23;;;;;;;9.67;7.40;;;;;;;;;;5092346;28;20731;-67
2023/08/25 05:52:49;;;;;;;8.00;6.70;;;;;;;;;;5095818;28;20410;-67
2023/08/25 05:55:16;;;;;;;8.17;7.40;;;;;;;;;;5095534;28;20899;-67
2023/08/25 05:57:43;;;;;;;7.97;6.90;;;;;;;;;;5095286;28;20436;-67
2023/08/25 06:00:09;;;;;;;7.10;6.43;;;;;;;;;;5094878;28;20408;-67
2023/08/25 06:02:35;;;;;;;8.80;7.00;;;;;;;;;;5095328;28;20408;-67
2023/08/25 06:05:01;;;;;;;7.13;6.53;;;;;;;;;;5095303;28;20397;-67
2023/08/25 06:07:27;;;;;;;9.07;8.03;;;;;;;;;;5095116;28;20532;-67
2023/08/25 06:09:53;;;;;;;6.97;6.57;;;;;;;;;;5095673;28;20458;-67
2023/08/25 06:12:19;;;;;;;12.77;7.33;;;;;;;;;;5095080;28;20432;-67
2023/08/25 06:14:47;;;;;;;8.43;6.80;;;;;;;;;;5095252;28;20438;-67
2023/08/25 06:17:13;;;;;;;13.03;7.13;;;;;;;;;;5095352;28;20473;-67
2023/08/25 06:19:39;;;;;;;12.10;7.40;;;;;;;;;;5094611;28;20412;-67
2023/08/25 06:22:05;;;;;;;12.03;7.80;;;;;;;;;;5094834;28;20470;-67
2023/08/25 06:24:33;;;;;;;7.80;7.10;;;;;;;;;;5093223;28;20545;-67
2023/08/25 06:26:59;;;;;;;7.13;6.63;;;;;;;;;;5094842;28;20419;-66
2023/08/25 06:29:25;;;;;;;11.27;7.23;;;;;;;;;;5095360;28;20778;-66
2023/08/25 06:31:51;;;;;;;12.10;6.90;;;;;;;;;;5094910;28;20417;-66
2023/08/25 06:34:17;;;;;;;6.97;6.27;;;;;;;;;;5094552;28;20875;-66
2023/08/25 06:36:43;;;;;;;10.33;6.90;;;;;;;;;;5094555;28;20462;-66
2023/08/25 06:39:09;;;;;;;8.53;7.27;;;;;;;;;;5094669;28;20432;-65
2023/08/25 06:41:35;;;;;;;7.33;6.30;;;;;;;;;;5094730;28;20473;-65
2023/08/25 06:44:01;;;;;;;7.40;6.80;;;;;;;;;;5093139;28;20497;-65
2023/08/25 06:46:27;;;;;;;9.47;7.37;;;;;;;;;;5094213;28;20419;-65
2023/08/25 06:48:53;;;;;;;13.70;9.37;;;;;;;;;;5094454;28;20438;-64
2023/08/25 06:51:19;;;;;;;17.27;9.40;;;;;;;;;;5095066;28;20438;-65
2023/08/25 06:53:45;;;;;;;38.90;12.40;;;;;;;;;;5094467;28;20463;-65
2023/08/25 06:56:11;;;;;;;13.37;9.17;;;;;;;;;;5094384;28;20556;-65
2023/08/25 06:58:40;;;;;;;16.20;10.10;;;;;;;;;;5094474;28;20474;-65
2023/08/25 07:01:08;;;;;;;23.00;17.40;;;;;;;;;;5094463;28;20776;-65
2023/08/25 07:03:34;;;;;;;48.63;30.13;;;;;;;;;;5093398;28;20436;-65
2023/08/25 07:06:00;;;;;;;29.80;19.33;;;;;;;;;;5094233;28;20414;-65
2023/08/25 07:08:27;;;;;;;31.60;17.57;;;;;;;;;;5094112;28;20808;-65
2023/08/25 07:10:53;;;;;;;62.57;29.80;;;;;;;;;;5093531;28;20410;-65
2023/08/25 07:13:19;;;;;;;18.67;12.37;;;;;;;;;;5093774;28;20451;-65
2023/08/25 07:15:45;;;;;;;34.87;21.77;;;;;;;;;;5094073;28;20493;-65
2023/08/25 07:18:11;;;;;;;14.70;12.57;;;;;;;;;;5093719;28;20899;-66
2023/08/25 07:20:39;;;;;;;22.73;12.23;;;;;;;;;;5093787;28;20435;-65
2023/08/25 07:23:05;;;;;;;18.03;11.50;;;;;;;;;;5093710;28;20422;-65
2023/08/25 07:25:31;;;;;;;17.13;10.97;;;;;;;;;;5093555;28;20412;-65
2023/08/25 07:27:57;;;;;;;17.60;10.23;;;;;;;;;;5093605;28;20416;-65
2023/08/25 07:30:23;;;;;;;11.67;9.47;;;;;;;;;;5093685;28;20478;-65
2023/08/25 07:32:53;;;;;;;10.60;9.43;;;;;;;;;;5093656;28;20401;-65
2023/08/25 07:35:19;;;;;;;10.87;9.77;;;;;;;;;;5093699;28;20416;-65
2023/08/25 07:37:45;;;;;;;12.93;9.57;;;;;;;;;;5092351;28;20935;-65
2023/08/25 07:40:14;;;;;;;10.80;9.10;;;;;;;;;;5093625;28;20400;-65
2023/08/25 07:42:40;;;;;;;10.87;8.90;;;;;;;;;;5093638;28;20409;-65
2023/08/25 07:45:06;;;;;;;19.03;10.40;;;;;;;;;;5093689;28;20428;-65
2023/08/25 07:47:32;;;;;;;12.90;9.40;;;;;;;;;;5093477;28;20408;-65
2023/08/25 07:49:58;;;;;;;10.63;9.50;;;;;;;;;;5093352;28;20957;-65
2023/08/25 07:52:24;;;;;;;11.40;9.53;;;;;;;;;;5093433;28;20443;-65
2023/08/25 07:54:53;;;;;;;11.23;9.50;;;;;;;;;;5093372;28;20844;-64
2023/08/25 07:57:19;;;;;;;8.50;7.73;;;;;;;;;;5092034;28;20469;-65
2023/08/25 07:59:45;;;;;;;10.77;7.93;;;;;;;;;;5093299;28;20409;-65
2023/08/25 08:02:12;;;;;;;9.10;8.27;;;;;;;;;;5093204;28;20423;-65
2023/08/25 08:04:40;;;;;;;12.77;8.87;;;;;;;;;;5093256;28;20510;-65
2023/08/25 08:07:09;;;;;;;9.67;8.73;;;;;;;;;;5093248;28;20560;-65
2023/08/25 08:09:36;;;;;;;16.40;9.13;;;;;;;;;;5093162;28;20445;-65
2023/08/25 08:12:02;;;;;;;10.03;7.60;;;;;;;;;;5092943;28;20514;-65
2023/08/25 08:14:28;;;;;;;17.63;8.10;;;;;;;;;;5091707;28;20913;-65
2023/08/25 08:16:54;;;;;;;10.57;7.93;;;;;;;;;;5093109;28;20447;-65
2023/08/25 08:19:20;;;;;;;9.70;7.17;;;;;;;;;;5091575;28;20432;-65
2023/08/25 08:21:46;;;;;;;8.27;7.57;;;;;;;;;;5092971;28;20494;-65
2023/08/25 08:24:12;;;;;;;10.47;7.53;;;;;;;;;;5092795;28;20758;-65
2023/08/25 08:26:40;;;;;;;9.93;6.70;;;;;;;;;;5092988;28;20417;-65
2023/08/25 08:29:09;;;;;;;7.27;6.57;;;;;;;;;;5092619;28;20924;-65
2023/08/25 08:31:35;;;;;;;10.10;6.83;;;;;;;;;;5092800;28;20791;-65
2023/08/25 08:34:01;;;;;;;6.20;5.80;;;;;;;;;;5092611;28;20439;-65
2023/08/25 08:36:27;;;;;;;7.13;6.47;;;;;;;;;;5092706;28;20459;-64
2023/08/25 08:38:53;;;;;;;6.23;5.70;;;;;;;;;;5092534;28;20434;-64
2023/08/25 08:41:19;;;;;;;12.60;6.87;;;;;;;;;;5092556;28;20410;-64
2023/08/25 08:43:48;;;;;;;6.47;5.90;;;;;;;;;;5092639;28;20430;-64
2023/08/25 08:46:15;;;;;;;7.97;6.03;;;;;;;;;;5092669;28;20501;-64
2023/08/25 08:48:44;;;;;;;6.53;5.50;;;;;;;;;;5091320;28;20464;-64
2023/08/25 08:51:11;;;;;;;9.13;6.27;;;;;;;;;;5092661;28;20494;-65
2023/08/25 08:53:40;;;;;;;6.93;6.10;;;;;;;;;;5092923;28;20797;-65
2023/08/25 08:56:08;;;;;;;7.07;6.57;;;;;;;;;;5092403;28;20971;-65
2023/08/25 08:58:34;;;;;;;7.83;6.57;;;;;;;;;;5092736;28;20885;-65
2023/08/25 09:01:00;;;;;;;8.50;6.50;;;;;;;;;;5092537;28;20763;-65
2023/08/25 09:03:33;;;;;;;12.63;7.33;;;;;;;;;;5092451;28;20833;-65
2023/08/25 09:06:03;;;;;;;10.37;7.10;;;;;;;;;;5092554;28;20444;-65
2023/08/25 09:08:29;;;;;;;7.90;7.20;;;;;;;;;;5092462;28;20413;-65
2023/08/25 09:10:58;;;;;;;7.03;6.40;;;;;;;;;;5092208;28;20442;-65
2023/08/25 09:13:24;;;;;;;7.93;7.10;;;;;;;;;;5092254;28;20446;-65
2023/08/25 09:15:53;;;;;;;10.90;8.40;;;;;;;;;;5092266;28;20468;-65
2023/08/25 09:18:19;;;;;;;12.73;8.00;;;;;;;;;;5092376;28;20435;-65
2023/08/25 09:20:45;;;;;;;11.23;7.23;;;;;;;;;;5092167;28;20440;-65
2023/08/25 09:23:11;;;;;;;12.17;8.40;;;;;;;;;;5092296;28;20427;-65
2023/08/25 09:25:43;;;;;;;8.20;7.50;;;;;;;;;;5092877;28;20454;-65
2023/08/25 09:28:09;;;;;;;7.10;6.50;;;;;;;;;;5096302;28;20423;-66
2023/08/25 09:30:38;;;;;;;13.57;9.03;;;;;;;;;;5096224;28;20442;-65
2023/08/25 09:33:05;;;;;;;9.20;8.30;;;;;;;;;;5096062;28;20419;-65
2023/08/25 09:35:34;;;;;;;9.03;8.20;;;;;;;;;;5095995;28;20833;-66
2023/08/25 09:38:00;;;;;;;9.73;7.33;;;;;;;;;;5096145;28;20475;-65
2023/08/25 09:40:31;;;;;;;12.40;7.60;;;;;;;;;;5095872;28;20417;-66
2023/08/25 09:43:04;;;;;;;12.13;7.80;;;;;;;;;;5096060;28;20422;-65
2023/08/25 09:45:33;;;;;;;7.57;6.90;;;;;;;;;;5094668;28;20429;-66
2023/08/25 09:48:08;;;;;;;9.30;8.40;;;;;;;;;;5096108;28;20959;-66
2023/08/25 09:50:38;;;;;;;7.77;7.27;;;;;;;;;;5095612;28;20437;-66
2023/08/25 09:53:08;;;;;;;7.70;7.20;;;;;;;;;;5095838;28;20619;-66
2023/08/25 09:55:37;;;;;;;7.17;6.47;;;;;;;;;;5095691;28;20582;-66
2023/08/25 09:58:12;;;;;;;6.97;6.20;;;;;;;;;;5094410;28;20417;-66
2023/08/25 10:00:39;;;;;;;6.30;5.80;;;;;;;;;;5095584;28;20429;-66
2023/08/25 10:03:11;;;;;;;6.10;5.70;;;;;;;;;;5095461;28;20839;-66
2023/08/25 10:05:41;;;;;;;5.27;4.97;;;;;;;;;;5095468;28;20548;-66
2023/08/25 10:08:10;;;;;;;5.03;4.70;;;;;;;;;;5095706;28;20421;-66
2023/08/25 10:10:36;;;;;;;5.50;5.10;;;;;;;;;;5095382;28;20421;-66
2023/08/25 10:13:03;;;;;;;5.93;5.43;;;;;;;;;;5095049;28;20436;-66
2023/08/25 10:15:32;;;;;;;8.83;5.00;;;;;;;;;;5095440;28;20405;-66
2023/08/25 10:18:03;;;;;;;6.40;4.50;;;;;;;;;;5095103;28;20425;-66
2023/08/25 10:20:32;;;;;;;5.97;5.30;;;;;;;;;;5095263;28;20486;-66
2023/08/25 10:22:58;;;;;;;4.80;4.40;;;;;;;;;;5094937;28;20893;-66
2023/08/25 10:25:30;;;;;;;8.50;4.30;;;;;;;;;;5094906;28;20412;-66
2023/08/25 10:28:00;;;;;;;4.37;3.97;;;;;;;;;;5095496;28;20454;-66
2023/08/25 10:30:29;;;;;;;4.50;4.13;;;;;;;;;;5095374;28;20427;-66
2023/08/25 10:32:56;;;;;;;4.20;3.80;;;;;;;;;;5095262;28;20775;-67
2023/08/25 10:35:43;;;;;;;4.43;4.03;;;;;;;;;;5095199;28;20767;-66
2023/08/25 10:38:22;;;;;;;4.37;4.00;;;;;;;;;;5094175;28;20412;-66
2023/08/25 10:40:57;;;;;;;4.13;4.03;;;;;;;;;;5095571;28;20436;-67
2023/08/25 10:43:24;;;;;;;4.53;4.13;;;;;;;;;;5095935;28;20413;-64
2023/08/25 10:45:52;;;;;;;4.50;4.10;;;;;;;;;;5095712;28;20439;-66
2023/08/25 10:48:19;;;;;;;7.47;4.27;;;;;;;;;;5095470;28;20405;-66
2023/08/25 10:50:47;;;;;;;4.03;3.80;;;;;;;;;;5095321;28;20421;-66
2023/08/25 10:53:32;;;;;;;6.20;4.03;;;;;;;;;;5094605;28;20404;-66
2023/08/25 10:56:17;;;;;;;3.70;3.40;;;;;;;;;;5094384;28;20505;-66
2023/08/25 10:58:53;;;;;;;3.83;3.37;;;;;;;;;;5094536;28;20484;-66
2023/08/25 11:01:23;;;;;;;7.60;3.80;;;;;;;;;;5094291;28;20527;-66
2023/08/25 11:04:06;;;;;;;5.00;3.93;;;;;;;;;;5094271;28;20730;-66
2023/08/25 11:06:40;;;;;;;4.37;3.87;;;;;;;;;;5094059;28;20891;-66
2023/08/25 11:09:07;;;;;;;4.17;3.57;;;;;;;;;;5094212;28;20780;-66
2023/08/25 11:11:39;;;;;;;3.17;2.90;;;;;;;;;;5093911;28;20911;-66
2023/08/25 11:14:05;;;;;;;6.53;3.60;;;;;;;;;;5094244;28;20425;-66
2023/08/25 11:16:34;;;;;;;4.33;3.93;;;;;;;;;;5093979;28;20954;-66
2023/08/25 11:19:00;;;;;;;4.17;3.87;;;;;;;;;;5094095;28;20410;-66
2023/08/25 11:21:26;;;;;;;3.60;3.50;;;;;;;;;;5093904;28;20436;-66
2023/08/25 11:23:53;;;;;;;4.33;3.87;;;;;;;;;;5093769;28;20412;-66
2023/08/25 11:26:19;;;;;;;3.40;3.30;;;;;;;;;;5093899;28;20812;-66
2023/08/25 11:28:51;;;;;;;3.47;3.33;;;;;;;;;;5093924;28;20399;-66
2023/08/25 11:31:20;;;;;;;3.40;3.30;;;;;;;;;;5094099;28;20521;-66
2023/08/25 11:33:49;;;;;;;6.77;3.30;;;;;;;;;;5093774;28;20416;-66
2023/08/25 11:36:18;;;;;;;4.30;3.50;;;;;;;;;;5093578;28;20471;-66
2023/08/25 11:38:51;;;;;;;3.00;2.73;;;;;;;;;;5093652;28;20820;-66
2023/08/25 11:41:17;;;;;;;4.37;3.20;;;;;;;;;;5093761;28;20522;-66
2023/08/25 11:43:48;;;;;;;3.87;3.50;;;;;;;;;;5093501;28;20413;-66
2023/08/25 11:46:15;;;;;;;3.47;3.20;;;;;;;;;;5093649;28;20965;-66
2023/08/25 11:48:41;;;;;;;4.70;3.50;;;;;;;;;;5093355;28;20466;-66
2023/08/25 11:51:14;;;;;;;3.70;3.60;;;;;;;;;;5093318;28;20440;-66
2023/08/25 11:53:41;;;;;;;3.50;3.30;;;;;;;;;;5092139;28;20417;-66
2023/08/25 11:56:10;;;;;;;3.90;3.60;;;;;;;;;;5093149;28;20471;-66
2023/08/25 11:58:39;;;;;;;3.40;3.30;;;;;;;;;;5093336;28;20401;-64
2023/08/25 12:01:12;;;;;;;3.50;3.27;;;;;;;;;;5093253;28;20920;-64
2023/08/25 12:03:39;;;;;;;5.03;3.93;;;;;;;;;;5093197;28;20398;-64
2023/08/25 12:06:09;;;;;;;3.57;3.27;;;;;;;;;;5093321;28;20881;-64
2023/08/25 12:08:35;;;;;;;3.43;3.33;;;;;;;;;;5093364;28;20432;-64
2023/08/25 12:11:05;;;;;;;3.53;3.23;;;;;;;;;;5093080;28;20531;-64
2023/08/25 12:13:32;;;;;;;3.93;3.83;;;;;;;;;;5092863;28;20479;-64
2023/08/25 12:15:58;;;;;;;4.90;3.60;;;;;;;;;;5092596;28;20476;-64
2023/08/25 12:18:40;;;;;;;5.10;3.60;;;;;;;;;;5092913;28;21104;-64
2023/08/25 12:21:06;;;;;;;5.43;3.30;;;;;;;;;;5093297;28;20429;-64
2023/08/25 12:23:36;;;;;;;2.90;2.80;;;;;;;;;;5092931;28;20406;-64
2023/08/25 12:26:03;;;;;;;3.27;3.07;;;;;;;;;;5092451;28;20429;-63
2023/08/25 12:28:29;;;;;;;5.13;3.53;;;;;;;;;;5092909;28;20489;-63
2023/08/25 12:30:57;;;;;;;3.90;3.30;;;;;;;;;;5092446;28;21020;-63
2023/08/25 12:33:26;;;;;;;3.73;3.00;;;;;;;;;;5092845;28;20447;-63
2023/08/25 12:35:54;;;;;;;3.17;2.73;;;;;;;;;;5092765;28;20804;-63
2023/08/25 12:38:23;;;;;;;3.70;3.47;;;;;;;;;;5092926;28;20441;-63
2023/08/25 12:40:49;;;;;;;3.50;3.20;;;;;;;;;;5092690;28;20412;-65
2023/08/25 12:43:15;;;;;;;4.00;3.80;;;;;;;;;;5092816;28;20402;-66
2023/08/25 12:45:41;;;;;;;3.53;3.43;;;;;;;;;;5092693;28;20436;-66
2023/08/25 12:48:07;;;;;;;4.80;3.70;;;;;;;;;;5092189;28;20900;-66
2023/08/25 12:50:34;;;;;;;7.73;3.60;;;;;;;;;;5092678;28;20421;-63
2023/08/25 12:53:02;;;;;;;3.57;3.37;;;;;;;;;;5092724;28;20405;-63
2023/08/25 12:55:29;;;;;;;6.20;3.77;;;;;;;;;;5092371;28;20570;-63
2023/08/25 12:57:54;;;;;;;4.43;3.97;;;;;;;;;;5092426;28;20433;-63
2023/08/25 13:00:21;;;;;;;14.03;12.27;;;;;;;;;;5092781;28;20416;-63
2023/08/25 13:02:47;;;;;;;5.63;4.63;;;;;;;;;;5096692;28;20424;-67
2023/08/25 13:05:13;;;;;;;3.67;3.37;;;;;;;;;;5096563;28;20444;-65
2023/08/25 13:07:39;;;;;;;4.37;4.07;;;;;;;;;;5096739;28;20454;-65
2023/08/25 13:10:06;;;;;;;4.33;4.13;;;;;;;;;;5096567;28;20423;-65
2023/08/25 13:12:32;;;;;;;5.87;5.47;;;;;;;;;;5096208;28;20491;-64
2023/08/25 13:14:59;;;;;;;4.43;4.20;;;;;;;;;;5096427;28;20421;-64
2023/08/25 13:17:25;;;;;;;4.47;4.03;;;;;;;;;;5094908;28;20564;-64
2023/08/25 13:19:51;;;;;;;4.43;4.00;;;;;;;;;;5096361;28;20401;-64
2023/08/25 13:22:17;;;;;;;3.63;3.40;;;;;;;;;;5096236;28;20840;-65
2023/08/25 13:24:43;;;;;;;5.27;3.70;;;;;;;;;;5096149;28;20484;-65
2023/08/25 13:27:09;;;;;;;3.93;3.50;;;;;;;;;;5096229;28;20798;-64
2023/08/25 13:29:35;;;;;;;5.70;5.30;;;;;;;;;;5096322;28;20420;-64
2023/08/25 13:32:01;;;;;;;13.33;6.90;;;;;;;;;;5096060;28;20432;-65
2023/08/25 13:34:27;;;;;;;4.97;4.27;;;;;;;;;;5096106;28;20873;-64
2023/08/25 13:36:53;;;;;;;4.63;4.43;;;;;;;;;;5095866;28;20500;-64
2023/08/25 13:39:19;;;;;;;8.73;4.00;;;;;;;;;;5095794;28;20408;-64
2023/08/25 13:41:45;;;;;;;7.97;3.60;;;;;;;;;;5095880;28;20522;-64
2023/08/25 13:44:11;;;;;;;4.30;3.90;;;;;;;;;;5095731;28;20873;-64
2023/08/25 13:46:37;;;;;;;4.10;3.73;;;;;;;;;;5095910;28;20401;-65
2023/08/25 13:49:04;;;;;;;5.43;4.83;;;;;;;;;;5095818;28;20397;-64
2023/08/25 13:51:32;;;;;;;5.00;4.50;;;;;;;;;;5095855;28;20483;-65
2023/08/25 13:53:59;;;;;;;4.57;4.27;;;;;;;;;;5095793;28;20900;-65
2023/08/25 13:56:25;;;;;;;7.87;4.80;;;;;;;;;;5095539;28;20484;-65
2023/08/25 13:58:51;;;;;;;4.60;4.50;;;;;;;;;;5095589;28;20841;-62
2023/08/25 14:01:20;;;;;;;3.93;3.80;;;;;;;;;;5094316;28;20509;-62
2023/08/25 14:03:47;;;;;;;3.73;3.43;;;;;;;;;;5095562;28;20420;-62
2023/08/25 14:06:16;;;;;;;3.70;3.50;;;;;;;;;;5095550;28;20477;-62
2023/08/25 14:08:45;;;;;;;3.90;3.70;;;;;;;;;;5095487;28;20462;-62
2023/08/25 14:11:11;;;;;;;8.23;3.50;;;;;;;;;;5095113;28;20425;-62
2023/08/25 14:13:37;;;;;;;6.20;2.80;;;;;;;;;;5095018;28;20457;-62
2023/08/25 14:16:05;;;;;;;4.33;3.10;;;;;;;;;;5095286;28;20502;-62
2023/08/25 14:18:31;;;;;;;3.33;3.20;;;;;;;;;;5095314;28;20474;-64
2023/08/25 14:21:02;;;;;;;3.93;3.43;;;;;;;;;;5095177;28;20409;-63
2023/08/25 14:23:28;;;;;;;3.00;2.80;;;;;;;;;;5095142;28;20433;-63
2023/08/25 14:25:54;;;;;;;4.17;3.80;;;;;;;;;;5094990;28;20512;-63
2023/08/25 14:28:20;;;;;;;2.80;2.70;;;;;;;;;;5094909;28;20516;-63
2023/08/25 14:30:46;;;;;;;5.83;3.00;;;;;;;;;;5095047;28;20410;-63
2023/08/25 14:33:14;;;;;;;7.97;2.70;;;;;;;;;;5094953;28;20417;-63
2023/08/25 14:35:43;;;;;;;3.27;2.90;;;;;;;;;;5094897;28;20444;-63
2023/08/25 14:38:09;;;;;;;3.43;2.80;;;;;;;;;;5094907;28;20457;-63
2023/08/25 14:40:38;;;;;;;3.67;2.43;;;;;;;;;;5094962;28;20467;-63